createdAt,value
2018-08-25T00:00:52.568Z,0
2018-08-25T00:01:52.556Z,0
2018-08-25T00:02:52.808Z,0
2018-08-25T00:03:52.548Z,0
2018-08-25T00:04:52.540Z,0
2018-08-25T00:05:52.274Z,0
2018-08-25T00:06:52.528Z,0
2018-08-25T00:07:52.257Z,0
2018-08-25T00:08:52.509Z,0
2018-08-25T00:09:52.258Z,0
2018-08-25T00:10:52.497Z,0
2018-08-25T00:11:52.752Z,0
2018-08-25T00:12:52.486Z,0
2018-08-25T00:13:52.474Z,0
2018-08-25T00:14:52.717Z,0
2018-08-25T00:15:52.729Z,0
2018-08-25T00:16:52.452Z,0
2018-08-25T00:17:52.457Z,0
2018-08-25T00:18:52.456Z,0
2018-08-25T00:19:52.438Z,0
2018-08-25T00:20:52.436Z,0
2018-08-25T00:21:52.424Z,0
2018-08-25T00:22:52.156Z,0
2018-08-25T00:23:51.899Z,0
2018-08-25T00:24:52.406Z,0
2018-08-25T00:25:52.396Z,0
2018-08-25T00:26:52.656Z,0
2018-08-25T00:27:52.638Z,0
2018-08-25T00:28:52.381Z,0
2018-08-25T00:29:52.122Z,0
2018-08-25T00:30:52.364Z,0
2018-08-25T00:31:51.850Z,0
2018-08-25T00:32:52.352Z,0
2018-08-25T00:33:52.351Z,0
2018-08-25T00:34:51.837Z,0
2018-08-25T00:35:52.334Z,0
2018-08-25T00:36:52.326Z,0
2018-08-25T00:37:52.321Z,0
2018-08-25T00:38:52.316Z,0
2018-08-25T00:39:52.048Z,0
2018-08-25T00:40:52.042Z,0
2018-08-25T00:41:52.297Z,0
2018-08-25T00:42:52.548Z,0
2018-08-25T00:43:52.279Z,0
2018-08-25T00:44:52.540Z,0
2018-08-25T00:45:52.011Z,0
2018-08-25T00:46:52.016Z,0
2018-08-25T00:47:52.077Z,0
2018-08-25T00:48:52.252Z,0
2018-08-25T00:49:52.509Z,0
2018-08-25T00:50:52.239Z,0
2018-08-25T00:51:52.230Z,0
2018-08-25T00:52:52.224Z,0
2018-08-25T00:53:51.961Z,0
2018-08-25T00:54:51.959Z,0
2018-08-25T00:55:52.209Z,0
2018-08-25T00:56:52.206Z,0
2018-08-25T00:57:52.209Z,0
2018-08-25T00:58:52.246Z,0
2018-08-25T00:59:52.445Z,0
2018-08-25T01:00:51.914Z,0
2018-08-25T01:01:51.911Z,0
2018-08-25T01:02:52.164Z,0
2018-08-25T01:03:51.894Z,0
2018-08-25T01:04:52.150Z,0
2018-08-25T01:05:51.629Z,0
2018-08-25T01:06:52.390Z,0
2018-08-25T01:07:52.383Z,0
2018-08-25T01:08:51.611Z,0
2018-08-25T01:09:52.380Z,0
2018-08-25T01:10:52.111Z,0
2018-08-25T01:11:52.100Z,0
2018-08-25T01:12:52.356Z,0
2018-08-25T01:13:51.830Z,0
2018-08-25T01:14:52.081Z,0
2018-08-25T01:15:52.428Z,0
2018-08-25T01:16:52.330Z,0
2018-08-25T01:17:52.333Z,0
2018-08-25T01:18:51.796Z,0
2018-08-25T01:19:51.801Z,0
2018-08-25T01:20:52.301Z,0
2018-08-25T01:21:52.050Z,0
2018-08-25T01:22:52.031Z,0
2018-08-25T01:23:51.773Z,0
2018-08-25T01:24:51.506Z,0
2018-08-25T01:25:52.018Z,0
2018-08-25T01:26:52.264Z,0
2018-08-25T01:27:51.479Z,0
2018-08-25T01:28:51.987Z,0
2018-08-25T01:29:52.274Z,0
2018-08-25T01:30:51.990Z,0
2018-08-25T01:31:51.970Z,0
2018-08-25T01:32:51.966Z,0
2018-08-25T01:33:52.215Z,0
2018-08-25T01:34:51.961Z,0
2018-08-25T01:35:51.683Z,0
2018-08-25T01:36:52.196Z,0
2018-08-25T01:37:52.189Z,0
2018-08-25T01:38:51.925Z,0
2018-08-25T01:39:52.173Z,0
2018-08-25T01:40:51.650Z,0
2018-08-25T01:41:51.899Z,0
2018-08-25T01:42:51.902Z,0
2018-08-25T01:43:52.151Z,0
2018-08-25T01:44:52.136Z,0
2018-08-25T01:45:52.129Z,0
2018-08-25T01:46:51.615Z,0
2018-08-25T01:47:51.862Z,0
2018-08-25T01:48:51.340Z,0
2018-08-25T01:49:51.844Z,0
2018-08-25T01:50:51.837Z,0
2018-08-25T01:51:51.834Z,0
2018-08-25T01:52:51.307Z,0
2018-08-25T01:53:52.076Z,0
2018-08-25T01:54:51.810Z,0
2018-08-25T01:55:51.800Z,0
2018-08-25T01:56:51.793Z,0
2018-08-25T01:57:51.534Z,0
2018-08-25T01:58:52.041Z,0
2018-08-25T01:59:51.521Z,0
2018-08-25T02:00:51.518Z,0
2018-08-25T02:01:51.765Z,0
2018-08-25T02:02:52.741Z,0
2018-08-25T02:03:51.753Z,0
2018-08-25T02:04:51.751Z,0
2018-08-25T02:05:51.735Z,0
2018-08-25T02:06:51.472Z,0
2018-08-25T02:07:51.204Z,0
2018-08-25T02:08:51.971Z,0
2018-08-25T02:09:51.712Z,0
2018-08-25T02:10:51.708Z,0
2018-08-25T02:11:51.960Z,0
2018-08-25T02:12:51.449Z,0
2018-08-25T02:13:51.421Z,0
2018-08-25T02:14:51.939Z,0
2018-08-25T02:15:51.935Z,0
2018-08-25T02:16:51.914Z,0
2018-08-25T02:17:51.399Z,0
2018-08-25T02:18:51.912Z,0
2018-08-25T02:19:51.649Z,0
2018-08-25T02:20:51.119Z,0
2018-08-25T02:21:51.116Z,0
2018-08-25T02:22:51.882Z,0
2018-08-25T02:23:51.872Z,0
2018-08-25T02:24:51.865Z,0
2018-08-25T02:25:51.600Z,0
2018-08-25T02:26:51.845Z,0
2018-08-25T02:27:51.339Z,0
2018-08-25T02:28:51.581Z,0
2018-08-25T02:29:51.823Z,0
2018-08-25T02:30:51.566Z,0
2018-08-25T02:31:51.561Z,0
2018-08-25T02:32:51.813Z,0
2018-08-25T02:33:51.821Z,0
2018-08-25T02:34:51.791Z,0
2018-08-25T02:35:51.782Z,0
2018-08-25T02:36:51.796Z,0
2018-08-25T02:37:51.511Z,0
2018-08-25T02:38:52.139Z,0
2018-08-25T02:39:51.245Z,0
2018-08-25T02:40:51.235Z,0
2018-08-25T02:41:51.232Z,0
2018-08-25T02:42:51.743Z,0
2018-08-25T02:43:51.481Z,0
2018-08-25T02:44:51.466Z,0
2018-08-25T02:45:51.456Z,0
2018-08-25T02:46:51.460Z,0
2018-08-25T02:47:51.441Z,0
2018-08-25T02:48:51.439Z,0
2018-08-25T02:49:51.693Z,0
2018-08-25T02:50:51.419Z,0
2018-08-25T02:51:51.156Z,0
2018-08-25T02:52:51.150Z,0
2018-08-25T02:53:51.395Z,0
2018-08-25T02:54:51.390Z,0
2018-08-25T02:55:51.389Z,0
2018-08-25T02:56:51.633Z,0
2018-08-25T02:57:51.114Z,0
2018-08-25T02:58:51.618Z,0
2018-08-25T02:59:51.101Z,0
2018-08-25T03:00:51.614Z,0
2018-08-25T03:01:51.344Z,0
2018-08-25T03:02:51.079Z,0
2018-08-25T03:03:51.583Z,0
2018-08-25T03:04:51.587Z,0
2018-08-25T03:05:51.057Z,0
2018-08-25T03:06:51.294Z,0
2018-08-25T03:07:51.293Z,0
2018-08-25T03:08:51.549Z,0
2018-08-25T03:09:50.768Z,0
2018-08-25T03:10:51.020Z,0
2018-08-25T03:11:51.534Z,0
2018-08-25T03:12:51.301Z,0
2018-08-25T03:13:51.378Z,0
2018-08-25T03:14:50.988Z,0
2018-08-25T03:15:51.243Z,0
2018-08-25T03:16:51.238Z,0
2018-08-25T03:17:51.485Z,0
2018-08-25T03:18:51.217Z,0
2018-08-25T03:19:51.461Z,0
2018-08-25T03:20:51.201Z,0
2018-08-25T03:21:51.455Z,0
2018-08-25T03:22:51.470Z,0
2018-08-25T03:23:51.192Z,0
2018-08-25T03:24:50.911Z,0
2018-08-25T03:25:51.158Z,0
2018-08-25T03:26:51.159Z,0
2018-08-25T03:27:50.887Z,0
2018-08-25T03:28:51.143Z,0
2018-08-25T03:29:51.141Z,0
2018-08-25T03:30:51.126Z,0
2018-08-25T03:31:51.127Z,0
2018-08-25T03:32:51.113Z,0
2018-08-25T03:33:51.357Z,0
2018-08-25T03:34:51.364Z,0
2018-08-25T03:35:51.085Z,0
2018-08-25T03:36:51.073Z,0
2018-08-25T03:37:51.105Z,0
2018-08-25T03:38:51.319Z,0
2018-08-25T03:39:51.061Z,0
2018-08-25T03:40:51.043Z,0
2018-08-25T03:41:51.294Z,0
2018-08-25T03:42:50.512Z,0
2018-08-25T03:43:51.280Z,0
2018-08-25T03:44:51.039Z,0
2018-08-25T03:45:51.270Z,0
2018-08-25T03:46:51.008Z,0
2018-08-25T03:47:50.736Z,0
2018-08-25T03:48:50.985Z,0
2018-08-25T03:49:50.971Z,0
2018-08-25T03:50:50.968Z,0
2018-08-25T03:51:50.956Z,0
2018-08-25T03:52:50.949Z,0
2018-08-25T03:53:50.940Z,0
2018-08-25T03:54:50.931Z,0
2018-08-25T03:55:50.682Z,0
2018-08-25T03:56:50.661Z,0
2018-08-25T03:57:51.192Z,0
2018-08-25T03:58:50.643Z,0
2018-08-25T03:59:50.642Z,0
2018-08-25T04:00:50.887Z,0
2018-08-25T04:01:51.065Z,0
2018-08-25T04:02:51.125Z,0
2018-08-25T04:03:50.617Z,0
2018-08-25T04:04:51.114Z,0
2018-08-25T04:05:51.102Z,0
2018-08-25T04:06:50.592Z,0
2018-08-25T04:07:50.588Z,0
2018-08-25T04:08:51.146Z,0
2018-08-25T04:09:51.068Z,0
2018-08-25T04:10:50.821Z,0
2018-08-25T04:11:51.063Z,0
2018-08-25T04:12:51.068Z,0
2018-08-25T04:13:50.528Z,0
2018-08-25T04:14:51.098Z,0
2018-08-25T04:15:50.513Z,0
2018-08-25T04:16:50.507Z,5
2018-08-25T04:17:50.498Z,5
2018-08-25T04:18:50.760Z,5
2018-08-25T04:19:51.005Z,5
2018-08-25T04:20:50.998Z,5
2018-08-25T04:21:50.992Z,5
2018-08-25T04:22:51.053Z,5
2018-08-25T04:23:50.457Z,5
2018-08-25T04:24:50.444Z,5
2018-08-25T04:25:50.688Z,5
2018-08-25T04:26:50.949Z,5
2018-08-25T04:27:50.676Z,5
2018-08-25T04:28:50.686Z,5
2018-08-25T04:29:50.657Z,5
2018-08-25T04:30:50.675Z,10
2018-08-25T04:31:50.389Z,10
2018-08-25T04:32:50.646Z,10
2018-08-25T04:33:50.890Z,15
2018-08-25T04:34:50.366Z,15
2018-08-25T04:35:50.941Z,15
2018-08-25T04:36:50.620Z,20
2018-08-25T04:37:50.360Z,20
2018-08-25T04:38:50.588Z,20
2018-08-25T04:39:50.837Z,20
2018-08-25T04:40:50.325Z,25
2018-08-25T04:41:50.572Z,25
2018-08-25T04:42:50.563Z,25
2018-08-25T04:43:50.876Z,30
2018-08-25T04:44:50.291Z,30
2018-08-25T04:45:50.279Z,30
2018-08-25T04:46:50.526Z,30
2018-08-25T04:47:50.005Z,30
2018-08-25T04:48:50.526Z,25
2018-08-25T04:49:50.508Z,25
2018-08-25T04:50:50.244Z,25
2018-08-25T04:51:50.497Z,20
2018-08-25T04:52:50.518Z,15
2018-08-25T04:53:50.743Z,15
2018-08-25T04:54:50.477Z,10
2018-08-25T04:55:50.711Z,10
2018-08-25T04:56:50.702Z,5
2018-08-25T04:57:50.692Z,5
2018-08-25T04:58:50.691Z,5
2018-08-25T04:59:50.426Z,0
2018-08-25T05:00:50.676Z,0
2018-08-25T05:01:51.022Z,0
2018-08-25T05:02:50.406Z,0
2018-08-25T05:03:50.656Z,0
2018-08-25T05:04:50.651Z,0
2018-08-25T05:05:50.395Z,0
2018-08-25T05:06:50.385Z,0
2018-08-25T05:07:50.877Z,0
2018-08-25T05:08:50.110Z,0
2018-08-25T05:09:50.599Z,0
2018-08-25T05:10:50.613Z,0
2018-08-25T05:11:50.341Z,0
2018-08-25T05:12:49.821Z,5
2018-08-25T05:13:50.586Z,5
2018-08-25T05:14:50.068Z,5
2018-08-25T05:15:50.562Z,5
2018-08-25T05:16:50.561Z,10
2018-08-25T05:17:50.290Z,15
2018-08-25T05:18:50.330Z,20
2018-08-25T05:19:50.276Z,20
2018-08-25T05:20:50.013Z,25
2018-08-25T05:21:50.050Z,30
2018-08-25T05:22:50.259Z,35
2018-08-25T05:23:50.249Z,35
2018-08-25T05:24:50.237Z,35
2018-08-25T05:25:49.714Z,25
2018-08-25T05:26:50.475Z,20
2018-08-25T05:27:50.224Z,15
2018-08-25T05:28:50.470Z,15
2018-08-25T05:29:50.447Z,15
2018-08-25T05:30:50.456Z,15
2018-08-25T05:31:49.925Z,20
2018-08-25T05:32:50.182Z,20
2018-08-25T05:33:49.656Z,25
2018-08-25T05:34:50.414Z,25
2018-08-25T05:35:50.465Z,25
2018-08-25T05:36:50.401Z,25
2018-08-25T05:37:49.889Z,25
2018-08-25T05:38:50.387Z,25
2018-08-25T05:39:49.871Z,25
2018-08-25T05:40:49.604Z,30
2018-08-25T05:41:50.111Z,35
2018-08-25T05:42:49.597Z,40
2018-08-25T05:43:50.353Z,45
2018-08-25T05:44:49.837Z,50
2018-08-25T05:45:50.086Z,60
2018-08-25T05:46:50.327Z,60
2018-08-25T05:47:50.319Z,60
2018-08-25T05:48:50.059Z,80
2018-08-25T05:49:50.057Z,85
2018-08-25T05:50:50.312Z,100
2018-08-25T05:51:49.532Z,105
2018-08-25T05:52:50.297Z,105
2018-08-25T05:53:50.019Z,105
2018-08-25T05:54:50.271Z,110
2018-08-25T05:55:50.017Z,110
2018-08-25T05:56:50.011Z,115
2018-08-25T05:57:50.232Z,115
2018-08-25T05:58:49.738Z,115
2018-08-25T05:59:49.982Z,115
2018-08-25T06:00:50.235Z,115
2018-08-25T06:01:49.965Z,120
2018-08-25T06:02:49.956Z,125
2018-08-25T06:03:49.953Z,130
2018-08-25T06:04:50.210Z,140
2018-08-25T06:05:50.193Z,145
2018-08-25T06:06:49.813Z,150
2018-08-25T06:07:49.408Z,150
2018-08-25T06:08:49.927Z,150
2018-08-25T06:09:49.961Z,150
2018-08-25T06:10:49.914Z,155
2018-08-25T06:11:49.889Z,155
2018-08-25T06:12:49.890Z,150
2018-08-25T06:13:49.888Z,150
2018-08-25T06:14:49.871Z,150
2018-08-25T06:15:49.874Z,150
2018-08-25T06:16:50.114Z,155
2018-08-25T06:17:50.767Z,155
2018-08-25T06:18:49.849Z,160
2018-08-25T06:19:49.582Z,165
2018-08-25T06:20:49.843Z,170
2018-08-25T06:21:49.828Z,170
2018-08-25T06:22:49.567Z,180
2018-08-25T06:23:49.810Z,185
2018-08-25T06:24:49.807Z,195
2018-08-25T06:25:49.811Z,200
2018-08-25T06:26:49.539Z,200
2018-08-25T06:27:49.793Z,205
2018-08-25T06:28:49.778Z,210
2018-08-25T06:29:50.365Z,220
2018-08-25T06:30:50.022Z,235
2018-08-25T06:31:49.762Z,245
2018-08-25T06:32:49.746Z,255
2018-08-25T06:33:50.003Z,265
2018-08-25T06:34:49.498Z,270
2018-08-25T06:35:49.742Z,275
2018-08-25T06:36:49.894Z,275
2018-08-25T06:37:49.474Z,270
2018-08-25T06:38:49.974Z,265
2018-08-25T06:39:49.716Z,265
2018-08-25T06:40:49.708Z,265
2018-08-25T06:41:49.743Z,260
2018-08-25T06:42:49.553Z,265
2018-08-25T06:43:49.635Z,265
2018-08-25T06:44:49.161Z,265
2018-08-25T06:45:49.932Z,270
2018-08-25T06:46:49.928Z,270
2018-08-25T06:47:49.666Z,275
2018-08-25T06:48:49.915Z,275
2018-08-25T06:49:49.904Z,280
2018-08-25T06:50:49.643Z,270
2018-08-25T06:51:49.119Z,270
2018-08-25T06:52:49.646Z,270
2018-08-25T06:53:49.627Z,260
2018-08-25T06:54:49.928Z,260
2018-08-25T06:55:49.617Z,265
2018-08-25T06:56:49.349Z,265
2018-08-25T06:57:49.607Z,265
2018-08-25T06:58:49.348Z,260
2018-08-25T06:59:49.764Z,260
2018-08-25T07:00:49.587Z,260
2018-08-25T07:01:49.583Z,260
2018-08-25T07:02:49.330Z,265
2018-08-25T07:03:49.569Z,275
2018-08-25T07:04:49.839Z,285
2018-08-25T07:05:49.596Z,285
2018-08-25T07:06:49.555Z,280
2018-08-25T07:07:49.302Z,280
2018-08-25T07:08:49.804Z,275
2018-08-25T07:09:49.798Z,270
2018-08-25T07:10:49.789Z,265
2018-08-25T07:11:49.271Z,260
2018-08-25T07:12:49.628Z,260
2018-08-25T07:13:49.777Z,260
2018-08-25T07:14:49.769Z,260
2018-08-25T07:15:49.502Z,260
2018-08-25T07:16:49.500Z,260
2018-08-25T07:17:49.495Z,255
2018-08-25T07:18:49.553Z,250
2018-08-25T07:19:49.483Z,245
2018-08-25T07:20:49.485Z,245
2018-08-25T07:21:49.731Z,245
2018-08-25T07:22:49.469Z,245
2018-08-25T07:23:49.467Z,250
2018-08-25T07:24:49.732Z,250
2018-08-25T07:25:49.735Z,255
2018-08-25T07:26:49.460Z,260
2018-08-25T07:27:49.704Z,260
2018-08-25T07:28:49.714Z,265
2018-08-25T07:29:48.923Z,265
2018-08-25T07:30:49.177Z,270
2018-08-25T07:31:49.694Z,270
2018-08-25T07:32:49.171Z,270
2018-08-25T07:33:48.899Z,270
2018-08-25T07:34:49.410Z,265
2018-08-25T07:35:48.904Z,265
2018-08-25T07:36:48.883Z,260
2018-08-25T07:37:49.665Z,260
2018-08-25T07:38:49.391Z,260
2018-08-25T07:39:49.388Z,255
2018-08-25T07:40:49.380Z,255
2018-08-25T07:41:49.380Z,255
2018-08-25T07:42:49.627Z,255
2018-08-25T07:43:49.111Z,260
2018-08-25T07:44:49.370Z,265
2018-08-25T07:45:49.609Z,270
2018-08-25T07:46:49.088Z,275
2018-08-25T07:47:49.351Z,280
2018-08-25T07:48:48.926Z,280
2018-08-25T07:49:49.235Z,280
2018-08-25T07:50:49.593Z,280
2018-08-25T07:51:49.341Z,285
2018-08-25T07:52:49.321Z,285
2018-08-25T07:53:49.961Z,285
2018-08-25T07:54:48.789Z,285
2018-08-25T07:55:49.319Z,285
2018-08-25T07:56:48.786Z,285
2018-08-25T07:57:49.297Z,290
2018-08-25T07:58:49.031Z,285
2018-08-25T07:59:48.774Z,285
2018-08-25T08:00:49.284Z,285
2018-08-25T08:01:48.766Z,290
2018-08-25T08:02:49.535Z,290
2018-08-25T08:03:49.529Z,290
2018-08-25T08:04:49.699Z,290
2018-08-25T08:05:49.417Z,285
2018-08-25T08:06:49.513Z,285
2018-08-25T08:07:49.509Z,280
2018-08-25T08:08:48.987Z,275
2018-08-25T08:09:49.247Z,275
2018-08-25T08:10:49.495Z,270
2018-08-25T08:11:49.366Z,270
2018-08-25T08:12:49.227Z,265
2018-08-25T08:13:49.477Z,270
2018-08-25T08:14:48.712Z,265
2018-08-25T08:15:48.973Z,260
2018-08-25T08:16:49.462Z,250
2018-08-25T08:17:49.467Z,245
2018-08-25T08:18:49.232Z,245
2018-08-25T08:19:49.186Z,250
2018-08-25T08:20:49.441Z,240
2018-08-25T08:21:49.433Z,230
2018-08-25T08:22:49.192Z,230
2018-08-25T08:23:49.427Z,235
2018-08-25T08:24:49.423Z,235
2018-08-25T08:25:48.912Z,245
2018-08-25T08:26:48.907Z,250
2018-08-25T08:27:49.156Z,255
2018-08-25T08:28:49.146Z,265
2018-08-25T08:29:49.400Z,265
2018-08-25T08:30:49.393Z,265
2018-08-25T08:31:49.142Z,300
2018-08-25T08:32:49.401Z,320
2018-08-25T08:33:49.492Z,340
2018-08-25T08:34:49.118Z,355
2018-08-25T08:35:49.385Z,365
2018-08-25T08:36:49.399Z,380
2018-08-25T08:37:48.858Z,375
2018-08-25T08:38:49.113Z,335
2018-08-25T08:39:49.577Z,315
2018-08-25T08:40:49.365Z,305
2018-08-25T08:41:49.098Z,325
2018-08-25T08:42:49.094Z,335
2018-08-25T08:43:49.095Z,305
2018-08-25T08:44:49.345Z,295
2018-08-25T08:45:49.343Z,290
2018-08-25T08:46:49.341Z,270
2018-08-25T08:47:49.245Z,260
2018-08-25T08:48:49.067Z,255
2018-08-25T08:49:56.793Z,245
2018-08-25T08:50:48.801Z,225
2018-08-25T08:51:49.316Z,240
2018-08-25T08:52:49.061Z,260
2018-08-25T08:53:49.055Z,255
2018-08-25T08:54:48.805Z,260
2018-08-25T08:55:49.315Z,305
2018-08-25T08:56:48.783Z,305
2018-08-25T08:57:49.042Z,310
2018-08-25T08:58:49.036Z,300
2018-08-25T08:59:49.307Z,300
2018-08-25T09:00:49.296Z,300
2018-08-25T09:01:49.024Z,295
2018-08-25T09:02:48.768Z,305
2018-08-25T09:03:48.760Z,340
2018-08-25T09:04:49.283Z,365
2018-08-25T09:05:49.269Z,375
2018-08-25T09:06:49.014Z,385
2018-08-25T09:07:49.267Z,390
2018-08-25T09:08:48.744Z,380
2018-08-25T09:09:48.995Z,405
2018-08-25T09:10:49.263Z,415
2018-08-25T09:11:49.674Z,420
2018-08-25T09:12:48.737Z,405
2018-08-25T09:13:48.994Z,390
2018-08-25T09:14:49.245Z,375
2018-08-25T09:15:49.240Z,370
2018-08-25T09:16:48.984Z,365
2018-08-25T09:17:48.981Z,345
2018-08-25T09:18:48.461Z,345
2018-08-25T09:19:49.237Z,330
2018-08-25T09:20:48.965Z,330
2018-08-25T09:21:48.970Z,330
2018-08-25T09:22:48.959Z,335
2018-08-25T09:23:49.219Z,345
2018-08-25T09:24:49.207Z,350
2018-08-25T09:25:49.214Z,360
2018-08-25T09:26:49.050Z,370
2018-08-25T09:27:49.203Z,375
2018-08-25T09:28:48.687Z,380
2018-08-25T09:29:48.937Z,390
2018-08-25T09:30:48.675Z,395
2018-08-25T09:31:48.936Z,400
2018-08-25T09:32:48.938Z,415
2018-08-25T09:33:49.191Z,420
2018-08-25T09:34:49.186Z,425
2018-08-25T09:35:49.153Z,425
2018-08-25T09:36:49.234Z,425
2018-08-25T09:37:48.931Z,425
2018-08-25T09:38:49.177Z,425
2018-08-25T09:39:49.225Z,430
2018-08-25T09:40:48.661Z,430
2018-08-25T09:41:49.602Z,450
2018-08-25T09:42:48.906Z,445
2018-08-25T09:43:48.905Z,435
2018-08-25T09:44:48.647Z,405
2018-08-25T09:45:48.381Z,390
2018-08-25T09:46:49.211Z,385
2018-08-25T09:47:48.897Z,365
2018-08-25T09:48:49.149Z,355
2018-08-25T09:49:48.901Z,345
2018-08-25T09:50:48.625Z,285
2018-08-25T09:51:48.882Z,260
2018-08-25T09:52:48.620Z,230
2018-08-25T09:53:49.146Z,210
2018-08-25T09:54:48.875Z,195
2018-08-25T09:55:48.877Z,170
2018-08-25T09:56:48.878Z,145
2018-08-25T09:57:48.865Z,115
2018-08-25T09:58:49.181Z,85
2018-08-25T09:59:48.857Z,70
2018-08-25T10:00:49.118Z,60
2018-08-25T10:01:49.116Z,55
2018-08-25T10:02:48.589Z,55
2018-08-25T10:03:48.850Z,50
2018-08-25T10:04:48.844Z,50
2018-08-25T10:05:48.586Z,55
2018-08-25T10:06:49.128Z,95
2018-08-25T10:07:48.591Z,135
2018-08-25T10:08:48.316Z,150
2018-08-25T10:09:48.568Z,200
2018-08-25T10:10:48.624Z,200
2018-08-25T10:11:48.826Z,165
2018-08-25T10:12:49.081Z,145
2018-08-25T10:13:48.809Z,130
2018-08-25T10:14:48.807Z,120
2018-08-25T10:15:49.063Z,120
2018-08-25T10:16:49.377Z,120
2018-08-25T10:17:48.797Z,105
2018-08-25T10:18:48.804Z,100
2018-08-25T10:19:49.061Z,85
2018-08-25T10:20:49.045Z,70
2018-08-25T10:21:49.041Z,65
2018-08-25T10:22:48.566Z,65
2018-08-25T10:23:49.477Z,70
2018-08-25T10:24:48.784Z,70
2018-08-25T10:25:48.761Z,60
2018-08-25T10:26:48.768Z,55
2018-08-25T10:27:48.510Z,55
2018-08-25T10:28:49.105Z,55
2018-08-25T10:29:49.011Z,50
2018-08-25T10:30:48.749Z,50
2018-08-25T10:31:49.063Z,70
2018-08-25T10:32:48.732Z,115
2018-08-25T10:33:48.988Z,155
2018-08-25T10:34:48.732Z,200
2018-08-25T10:35:48.731Z,225
2018-08-25T10:36:48.981Z,210
2018-08-25T10:37:48.465Z,145
2018-08-25T10:38:48.706Z,115
2018-08-25T10:39:48.968Z,95
2018-08-25T10:40:48.700Z,85
2018-08-25T10:41:48.914Z,80
2018-08-25T10:42:48.696Z,75
2018-08-25T10:43:48.948Z,75
2018-08-25T10:44:48.690Z,70
2018-08-25T10:45:48.424Z,70
2018-08-25T10:46:48.926Z,65
2018-08-25T10:47:48.414Z,65
2018-08-25T10:48:48.456Z,65
2018-08-25T10:49:48.657Z,70
2018-08-25T10:50:48.394Z,65
2018-08-25T10:51:48.901Z,60
2018-08-25T10:52:48.898Z,55
2018-08-25T10:53:48.930Z,55
2018-08-25T10:54:48.639Z,50
2018-08-25T10:55:48.366Z,50
2018-08-25T10:56:48.630Z,45
2018-08-25T10:57:48.617Z,45
2018-08-25T10:58:48.609Z,45
2018-08-25T10:59:48.874Z,45
2018-08-25T11:00:49.790Z,45
2018-08-25T11:01:48.851Z,45
2018-08-25T11:02:48.330Z,40
2018-08-25T11:03:48.075Z,40
2018-08-25T11:04:48.587Z,40
2018-08-25T11:05:48.579Z,40
2018-08-25T11:06:47.801Z,40
2018-08-25T11:07:48.307Z,45
2018-08-25T11:08:48.775Z,40
2018-08-25T11:09:48.300Z,40
2018-08-25T11:10:48.037Z,35
2018-08-25T11:11:48.549Z,35
2018-08-25T11:12:48.536Z,35
2018-08-25T11:13:48.801Z,40
2018-08-25T11:14:48.268Z,40
2018-08-25T11:15:48.276Z,45
2018-08-25T11:16:48.535Z,50
2018-08-25T11:17:48.787Z,65
2018-08-25T11:18:48.765Z,75
2018-08-25T11:19:48.767Z,80
2018-08-25T11:20:48.766Z,110
2018-08-25T11:21:48.236Z,155
2018-08-25T11:22:48.492Z,175
2018-08-25T11:23:48.508Z,190
2018-08-25T11:24:48.475Z,210
2018-08-25T11:25:48.462Z,230
2018-08-25T11:26:48.460Z,235
2018-08-25T11:27:48.458Z,235
2018-08-25T11:28:48.701Z,245
2018-08-25T11:29:48.442Z,265
2018-08-25T11:30:48.435Z,275
2018-08-25T11:31:48.490Z,250
2018-08-25T11:32:48.435Z,240
2018-08-25T11:33:48.418Z,245
2018-08-25T11:34:48.417Z,255
2018-08-25T11:35:48.666Z,275
2018-08-25T11:36:48.403Z,335
2018-08-25T11:37:49.018Z,405
2018-08-25T11:38:48.138Z,450
2018-08-25T11:39:47.872Z,470
2018-08-25T11:40:48.640Z,490
2018-08-25T11:41:48.638Z,500
2018-08-25T11:42:48.120Z,495
2018-08-25T11:43:48.364Z,460
2018-08-25T11:44:47.849Z,415
2018-08-25T11:45:48.612Z,380
2018-08-25T11:46:47.832Z,345
2018-08-25T11:47:48.613Z,335
2018-08-25T11:48:48.347Z,355
2018-08-25T11:49:48.594Z,375
2018-08-25T11:50:48.588Z,385
2018-08-25T11:51:48.066Z,355
2018-08-25T11:52:48.587Z,340
2018-08-25T11:53:48.576Z,355
2018-08-25T11:54:48.573Z,365
2018-08-25T11:55:48.314Z,365
2018-08-25T11:56:48.308Z,365
2018-08-25T11:57:48.292Z,365
2018-08-25T11:58:48.568Z,360
2018-08-25T11:59:48.291Z,360
2018-08-25T12:00:48.284Z,370
2018-08-25T12:01:48.278Z,390
2018-08-25T12:02:47.756Z,395
2018-08-25T12:03:48.736Z,380
2018-08-25T12:04:47.752Z,380
2018-08-25T12:05:48.258Z,275
2018-08-25T12:06:48.258Z,225
2018-08-25T12:07:48.526Z,190
2018-08-25T12:08:48.255Z,165
2018-08-25T12:09:48.792Z,125
2018-08-25T12:10:48.246Z,90
2018-08-25T12:11:48.236Z,80
2018-08-25T12:12:48.491Z,125
2018-08-25T12:13:48.231Z,150
2018-08-25T12:14:48.220Z,135
2018-08-25T12:15:48.218Z,115
2018-08-25T12:16:47.972Z,115
2018-08-25T12:17:48.462Z,135
2018-08-25T12:18:48.513Z,195
2018-08-25T12:19:48.201Z,280
2018-08-25T12:20:48.441Z,390
2018-08-25T12:21:47.933Z,450
2018-08-25T12:22:48.449Z,450
2018-08-25T12:23:48.448Z,390
2018-08-25T12:24:48.432Z,345
2018-08-25T12:25:48.426Z,320
2018-08-25T12:26:48.184Z,285
2018-08-25T12:27:48.156Z,280
2018-08-25T12:28:48.152Z,340
2018-08-25T12:29:48.405Z,385
2018-08-25T12:30:47.836Z,385
2018-08-25T12:31:47.892Z,350
2018-08-25T12:32:48.392Z,340
2018-08-25T12:33:48.584Z,345
2018-08-25T12:34:47.874Z,345
2018-08-25T12:35:47.868Z,360
2018-08-25T12:36:47.856Z,350
2018-08-25T12:37:47.856Z,325
2018-08-25T12:38:47.859Z,305
2018-08-25T12:39:48.243Z,300
2018-08-25T12:40:47.587Z,295
2018-08-25T12:41:48.366Z,290
2018-08-25T12:42:47.577Z,275
2018-08-25T12:43:48.506Z,250
2018-08-25T12:44:48.083Z,235
2018-08-25T12:45:48.080Z,255
2018-08-25T12:46:48.073Z,255
2018-08-25T12:47:47.816Z,250
2018-08-25T12:48:47.936Z,235
2018-08-25T12:49:48.058Z,225
2018-08-25T12:50:48.315Z,225
2018-08-25T12:51:48.799Z,225
2018-08-25T12:52:48.054Z,220
2018-08-25T12:53:48.043Z,215
2018-08-25T12:54:48.038Z,215
2018-08-25T12:55:48.042Z,220
2018-08-25T12:56:48.289Z,210
2018-08-25T12:57:48.280Z,215
2018-08-25T12:58:48.273Z,215
2018-08-25T12:59:48.017Z,220
2018-08-25T13:00:48.008Z,220
2018-08-25T13:01:48.002Z,215
2018-08-25T13:02:47.743Z,205
2018-08-25T13:03:48.001Z,205
2018-08-25T13:04:47.736Z,220
2018-08-25T13:05:47.471Z,230
2018-08-25T13:06:47.725Z,200
2018-08-25T13:07:47.716Z,150
2018-08-25T13:08:47.460Z,130
2018-08-25T13:09:47.979Z,125
2018-08-25T13:10:47.712Z,110
2018-08-25T13:11:47.972Z,115
2018-08-25T13:12:47.976Z,130
2018-08-25T13:13:47.948Z,140
2018-08-25T13:14:47.978Z,115
2018-08-25T13:15:47.685Z,105
2018-08-25T13:16:47.413Z,100
2018-08-25T13:17:47.673Z,100
2018-08-25T13:18:47.828Z,95
2018-08-25T13:19:47.663Z,90
2018-08-25T13:20:47.912Z,80
2018-08-25T13:21:47.980Z,75
2018-08-25T13:22:47.639Z,70
2018-08-25T13:23:48.174Z,65
2018-08-25T13:24:48.178Z,65
2018-08-25T13:25:47.373Z,65
2018-08-25T13:26:48.141Z,75
2018-08-25T13:27:47.927Z,75
2018-08-25T13:28:47.878Z,75
2018-08-25T13:29:47.867Z,70
2018-08-25T13:30:48.306Z,65
2018-08-25T13:31:47.878Z,60
2018-08-25T13:32:48.099Z,60
2018-08-25T13:33:47.841Z,55
2018-08-25T13:34:47.576Z,55
2018-08-25T13:35:48.091Z,60
2018-08-25T13:36:47.837Z,65
2018-08-25T13:37:48.083Z,65
2018-08-25T13:38:48.069Z,65
2018-08-25T13:39:48.104Z,70
2018-08-25T13:40:47.540Z,70
2018-08-25T13:41:47.535Z,60
2018-08-25T13:42:47.801Z,55
2018-08-25T13:43:48.361Z,55
2018-08-25T13:44:47.515Z,50
2018-08-25T13:45:48.028Z,50
2018-08-25T13:46:47.773Z,65
2018-08-25T13:47:47.753Z,75
2018-08-25T13:48:47.758Z,80
2018-08-25T13:49:47.747Z,80
2018-08-25T13:50:47.222Z,95
2018-08-25T13:51:47.471Z,105
2018-08-25T13:52:48.128Z,105
2018-08-25T13:53:48.029Z,105
2018-08-25T13:54:47.717Z,110
2018-08-25T13:55:47.698Z,115
2018-08-25T13:56:47.431Z,120
2018-08-25T13:57:47.684Z,130
2018-08-25T13:58:47.684Z,135
2018-08-25T13:59:47.976Z,155
2018-08-25T14:00:47.925Z,160
2018-08-25T14:01:47.150Z,175
2018-08-25T14:02:47.392Z,195
2018-08-25T14:03:47.647Z,220
2018-08-25T14:04:47.912Z,240
2018-08-25T14:05:47.894Z,225
2018-08-25T14:06:47.897Z,210
2018-08-25T14:07:47.624Z,195
2018-08-25T14:08:47.891Z,190
2018-08-25T14:09:47.619Z,175
2018-08-25T14:10:47.864Z,170
2018-08-25T14:11:47.591Z,155